createdAt,value
2019-02-22T00:00:43.894Z,0.00
2019-02-22T00:01:43.902Z,0.00
2019-02-22T00:02:43.873Z,0.00
2019-02-22T00:03:43.864Z,0.00
2019-02-22T00:04:43.870Z,0.00
2019-02-22T00:05:43.837Z,0.00
2019-02-22T00:06:43.826Z,0.00
2019-02-22T00:07:43.825Z,0.00
2019-02-22T00:08:43.812Z,0.00
2019-02-22T00:09:49.416Z,0.00
2019-02-22T00:10:44.784Z,0.00
2019-02-22T00:11:43.770Z,0.00
2019-02-22T00:12:43.818Z,0.00
2019-02-22T00:13:43.747Z,0.00
2019-02-22T00:14:43.740Z,0.00
2019-02-22T00:15:43.732Z,0.00
2019-02-22T00:16:43.718Z,0.00
2019-02-22T00:17:43.739Z,0.00
2019-02-22T00:18:43.693Z,0.00
2019-02-22T00:19:43.687Z,0.00
2019-02-22T00:20:43.669Z,0.00
2019-02-22T00:21:43.686Z,0.00
2019-02-22T00:22:43.716Z,0.00
2019-02-22T00:23:43.640Z,0.00
2019-02-22T00:24:43.625Z,0.00
2019-02-22T00:25:43.622Z,0.00
2019-02-22T00:26:43.624Z,0.00
2019-02-22T00:27:43.607Z,0.00
2019-02-22T00:28:43.580Z,0.00
2019-02-22T00:29:43.569Z,0.00
2019-02-22T00:30:43.561Z,0.00
2019-02-22T00:31:43.552Z,0.00
2019-02-22T00:32:43.554Z,0.00
2019-02-22T00:33:43.529Z,0.00
2019-02-22T00:34:43.541Z,0.00
2019-02-22T00:35:43.534Z,0.00
2019-02-22T00:36:43.499Z,0.00
2019-02-22T00:37:43.494Z,0.00
2019-02-22T00:41:00.917Z,0.00
2019-02-22T00:42:00.900Z,0.00
2019-02-22T00:43:00.943Z,0.00
2019-02-22T00:44:00.882Z,0.00
2019-02-22T00:45:00.868Z,0.00
2019-02-22T00:46:00.856Z,0.00
2019-02-22T00:47:00.844Z,0.00
2019-02-22T00:48:00.833Z,0.00
2019-02-22T00:49:00.849Z,0.00
2019-02-22T00:50:00.813Z,0.00
2019-02-22T00:51:00.798Z,0.00
2019-02-22T00:52:00.809Z,0.00
2019-02-22T00:53:00.787Z,0.00
2019-02-22T00:54:00.780Z,0.00
2019-02-22T00:55:00.774Z,0.00
2019-02-22T00:56:00.750Z,0.00
2019-02-22T00:57:00.733Z,0.00
2019-02-22T00:58:00.725Z,0.00
2019-02-22T00:59:00.723Z,0.00
2019-02-22T01:00:00.698Z,0.00
2019-02-22T01:01:00.706Z,0.00
2019-02-22T01:02:00.677Z,0.00
2019-02-22T01:03:00.670Z,0.00
2019-02-22T01:04:00.667Z,0.00
2019-02-22T01:05:00.641Z,0.00
2019-02-22T01:06:00.630Z,0.00
2019-02-22T01:07:00.619Z,0.00
2019-02-22T01:08:00.614Z,0.00
2019-02-22T01:09:00.634Z,0.00
2019-02-22T01:10:00.589Z,0.00
2019-02-22T01:11:00.574Z,0.00
2019-02-22T01:12:00.563Z,0.00
2019-02-22T01:13:00.554Z,0.00
2019-02-22T01:14:00.555Z,0.00
2019-02-22T01:15:00.534Z,0.00
2019-02-22T01:16:00.519Z,0.00
2019-02-22T01:17:00.516Z,0.00
2019-02-22T01:18:00.494Z,0.00
2019-02-22T01:19:00.502Z,0.00
2019-02-22T01:20:00.716Z,0.00
2019-02-22T01:21:00.460Z,0.00
2019-02-22T01:22:00.473Z,0.00
2019-02-22T01:23:00.446Z,0.00
2019-02-22T01:24:00.435Z,0.00
2019-02-22T01:25:00.483Z,0.00
2019-02-22T01:26:00.406Z,0.00
2019-02-22T01:27:00.399Z,0.00
2019-02-22T01:28:00.390Z,0.00
2019-02-22T01:29:00.375Z,0.00
2019-02-22T01:30:00.380Z,0.00
2019-02-22T01:31:00.358Z,0.00
2019-02-22T01:32:00.374Z,0.00
2019-02-22T01:33:00.333Z,0.00
2019-02-22T01:34:00.319Z,0.00
2019-02-22T01:35:00.353Z,0.00
2019-02-22T01:36:00.297Z,0.00
2019-02-22T01:37:00.280Z,0.00
2019-02-22T01:38:00.274Z,0.00
2019-02-22T01:39:00.259Z,0.00
2019-02-22T01:40:00.279Z,0.00
2019-02-22T01:41:00.238Z,0.00
2019-02-22T01:42:00.225Z,0.00
2019-02-22T01:43:00.220Z,0.00
2019-02-22T01:44:00.203Z,0.00
2019-02-22T01:45:00.323Z,0.00
2019-02-22T01:46:00.184Z,0.00
2019-02-22T01:47:00.173Z,0.00
2019-02-22T01:48:00.272Z,0.00
2019-02-22T01:49:00.154Z,0.00
2019-02-22T01:50:00.334Z,0.00
2019-02-22T01:51:00.131Z,0.00
2019-02-22T01:52:00.112Z,0.00
2019-02-22T01:53:00.113Z,0.00
2019-02-22T01:54:00.098Z,0.00
2019-02-22T01:55:00.165Z,0.00
2019-02-22T01:56:00.083Z,0.00
2019-02-22T01:57:00.066Z,0.00
2019-02-22T01:58:00.050Z,0.00
2019-02-22T01:59:00.034Z,0.00
2019-02-22T02:00:00.031Z,0.00
2019-02-22T02:01:00.025Z,0.00
2019-02-22T02:02:00.019Z,0.00
2019-02-22T02:02:59.987Z,0.00
2019-02-22T02:03:59.978Z,0.00
2019-02-22T02:04:59.969Z,0.00
2019-02-22T02:05:59.968Z,0.00
2019-02-22T02:06:59.965Z,0.00
2019-02-22T02:07:59.959Z,0.00
2019-02-22T02:08:59.919Z,0.00
2019-02-22T02:09:59.908Z,0.00
2019-02-22T02:10:59.912Z,0.00
2019-02-22T02:12:01.874Z,0.00
2019-02-22T02:12:59.877Z,0.00
2019-02-22T02:13:59.884Z,0.00
2019-02-22T02:14:59.852Z,0.00
2019-02-22T02:15:59.860Z,0.00
2019-02-22T02:16:59.840Z,0.00
2019-02-22T02:17:59.820Z,0.00
2019-02-22T02:18:59.807Z,0.00
2019-02-22T02:19:59.795Z,0.00
2019-02-22T02:20:59.782Z,0.00
2019-02-22T02:21:59.791Z,0.00
2019-02-22T02:22:59.763Z,0.00
2019-02-22T02:23:59.755Z,0.00
2019-02-22T02:24:59.750Z,0.00
2019-02-22T02:25:59.727Z,0.00
2019-02-22T02:26:59.728Z,0.00
2019-02-22T02:27:59.713Z,0.00
2019-02-22T02:28:59.695Z,0.00
2019-02-22T02:29:59.682Z,0.00
2019-02-22T02:30:59.692Z,0.00
2019-02-22T02:31:59.747Z,0.00
2019-02-22T02:32:59.647Z,0.00
2019-02-22T02:33:59.643Z,0.00
2019-02-22T02:34:59.625Z,0.00
2019-02-22T02:35:59.620Z,0.00
2019-02-22T02:36:59.616Z,0.00
2019-02-22T02:37:59.592Z,0.00
2019-02-22T02:38:59.582Z,0.00
2019-02-22T02:39:59.578Z,0.00
2019-02-22T02:41:09.864Z,0.00
2019-02-22T02:42:00.563Z,0.00
2019-02-22T02:42:59.536Z,0.00
2019-02-22T02:43:59.528Z,0.00
2019-02-22T02:44:59.511Z,0.00
2019-02-22T02:45:59.527Z,0.00
2019-02-22T02:46:59.501Z,0.00
2019-02-22T02:47:59.482Z,0.00
2019-02-22T02:48:59.480Z,0.00
2019-02-22T02:49:59.472Z,0.00
2019-02-22T02:50:59.446Z,0.00
2019-02-22T02:51:59.470Z,0.00
2019-02-22T02:52:59.432Z,0.00
2019-02-22T02:53:59.413Z,0.00
2019-02-22T02:54:59.402Z,0.00
2019-02-22T02:55:59.392Z,0.00
2019-02-22T02:56:59.385Z,0.00
2019-02-22T02:57:59.378Z,0.00
2019-02-22T02:58:59.395Z,0.00
2019-02-22T02:59:59.352Z,0.00
2019-02-22T03:00:59.333Z,0.00
2019-02-22T03:01:59.321Z,0.00
2019-02-22T03:02:59.324Z,0.00
2019-02-22T03:03:59.320Z,0.00
2019-02-22T03:04:59.304Z,0.00
2019-02-22T03:05:59.285Z,0.00
2019-02-22T03:06:59.269Z,0.00
2019-02-22T03:07:59.265Z,0.00
2019-02-22T03:08:59.246Z,0.00
2019-02-22T03:09:59.230Z,0.00
2019-02-22T03:10:59.228Z,0.00
2019-02-22T03:11:59.211Z,0.00
2019-02-22T03:12:59.208Z,0.00
2019-02-22T03:13:59.188Z,0.00
2019-02-22T03:14:59.181Z,0.00
2019-02-22T03:15:59.164Z,0.00
2019-02-22T03:16:59.153Z,0.00
2019-02-22T03:17:59.152Z,0.00
2019-02-22T03:18:59.129Z,0.00
2019-02-22T03:19:59.135Z,0.00
2019-02-22T03:20:59.121Z,0.00
2019-02-22T03:21:59.097Z,0.00
2019-02-22T03:22:59.095Z,0.00
2019-02-22T03:23:59.083Z,0.00
2019-02-22T03:24:59.070Z,0.00
2019-02-22T03:25:59.080Z,0.00
2019-02-22T03:26:59.039Z,0.00
2019-02-22T03:27:59.041Z,0.00
2019-02-22T03:28:59.019Z,0.00
2019-02-22T03:29:59.021Z,0.00
2019-02-22T03:30:59.009Z,0.00
2019-02-22T03:31:58.984Z,0.00
2019-02-22T03:32:58.972Z,0.00
2019-02-22T03:33:58.973Z,0.00
2019-02-22T03:34:58.958Z,0.00
2019-02-22T03:35:58.937Z,0.00
2019-02-22T03:36:58.943Z,0.00
2019-02-22T03:37:58.924Z,0.00
2019-02-22T03:38:58.916Z,0.00
2019-02-22T03:39:58.919Z,0.00
2019-02-22T03:40:58.882Z,0.00
2019-02-22T03:41:58.872Z,0.00
2019-02-22T03:42:58.856Z,0.00
2019-02-22T03:43:58.861Z,0.00
2019-02-22T03:44:58.834Z,0.00
2019-02-22T03:45:58.834Z,0.00
2019-02-22T03:46:58.817Z,0.00
2019-02-22T03:47:58.803Z,0.00
2019-02-22T03:48:58.805Z,0.00
2019-02-22T03:49:58.779Z,0.00
2019-02-22T03:50:58.768Z,0.00
2019-02-22T03:51:58.769Z,0.00
2019-02-22T03:52:58.747Z,0.00
2019-02-22T03:53:58.750Z,0.00
2019-02-22T03:54:58.721Z,0.00
2019-02-22T03:55:58.724Z,0.00
2019-02-22T03:56:58.700Z,0.00
2019-02-22T03:57:58.686Z,0.00
2019-02-22T03:58:58.689Z,0.00
2019-02-22T03:59:58.674Z,0.00
2019-02-22T04:00:58.666Z,0.00
2019-02-22T04:01:58.658Z,0.00
2019-02-22T04:02:58.636Z,0.00
2019-02-22T04:03:58.717Z,0.00
2019-02-22T04:04:58.612Z,0.00
2019-02-22T04:05:58.599Z,0.00
2019-02-22T04:06:58.585Z,0.00
2019-02-22T04:07:58.587Z,0.00
2019-02-22T04:08:58.565Z,0.00
2019-02-22T04:09:58.570Z,0.00
2019-02-22T04:10:58.556Z,0.00
2019-02-22T04:11:58.530Z,0.00
2019-02-22T04:12:58.519Z,0.00
2019-02-22T04:13:58.513Z,0.00
2019-02-22T04:14:58.577Z,0.00
2019-02-22T04:15:58.490Z,0.00
2019-02-22T04:16:58.479Z,0.00
2019-02-22T04:17:58.462Z,0.00
2019-02-22T04:18:58.449Z,0.00
2019-02-22T04:19:58.451Z,0.00
2019-02-22T04:20:58.432Z,0.00
2019-02-22T04:21:58.415Z,0.00
2019-02-22T04:22:58.414Z,0.00
2019-02-22T04:23:58.400Z,0.00
2019-02-22T04:24:58.397Z,0.00
2019-02-22T04:25:58.377Z,0.00
2019-02-22T04:26:58.358Z,0.00
2019-02-22T04:27:58.352Z,0.00
2019-02-22T04:28:58.335Z,0.00
2019-02-22T04:29:58.328Z,0.00
2019-02-22T04:30:58.326Z,0.00
2019-02-22T04:31:58.303Z,0.00
2019-02-22T04:32:58.293Z,0.00
2019-02-22T04:33:58.296Z,0.00
2019-02-22T04:34:58.268Z,0.00
2019-02-22T04:35:58.297Z,0.00
2019-02-22T04:36:58.260Z,0.00
2019-02-22T04:37:58.234Z,0.00
2019-02-22T04:38:58.246Z,0.00
2019-02-22T04:39:58.222Z,0.00
2019-02-22T04:40:58.226Z,0.00
2019-02-22T04:41:58.523Z,0.00
2019-02-22T04:42:58.181Z,0.00
2019-02-22T04:43:58.171Z,0.00
2019-02-22T04:44:58.167Z,0.00
2019-02-22T04:45:58.176Z,0.00
2019-02-22T04:46:58.133Z,0.00
2019-02-22T04:47:58.121Z,0.00
2019-02-22T04:48:58.139Z,0.00
2019-02-22T04:49:58.099Z,0.00
2019-02-22T04:50:58.115Z,0.00
2019-02-22T04:51:58.089Z,0.00
2019-02-22T04:52:58.068Z,0.00
2019-02-22T04:53:58.071Z,0.00
2019-02-22T04:54:58.074Z,0.00
2019-02-22T04:55:58.132Z,0.00
2019-02-22T04:56:58.024Z,0.00
2019-02-22T04:57:58.030Z,0.00
2019-02-22T04:58:58.009Z,0.00
2019-02-22T04:59:57.998Z,0.00
2019-02-22T05:00:58.003Z,0.00
2019-02-22T05:01:57.964Z,0.00
2019-02-22T05:02:57.976Z,0.00
2019-02-22T05:03:57.945Z,0.00
2019-02-22T05:04:57.932Z,0.00
2019-02-22T05:05:57.919Z,0.00
2019-02-22T05:06:57.928Z,0.00
2019-02-22T05:07:57.897Z,0.00
2019-02-22T05:08:57.885Z,0.00
2019-02-22T05:09:57.880Z,0.00
2019-02-22T05:10:57.862Z,0.00
2019-02-22T05:12:10.081Z,0.00
2019-02-22T05:12:58.840Z,0.00
2019-02-22T05:13:57.830Z,0.00
2019-02-22T05:14:57.817Z,0.00
2019-02-22T05:15:57.809Z,0.00
2019-02-22T05:16:57.813Z,0.00
2019-02-22T05:17:57.784Z,0.00
2019-02-22T05:18:57.806Z,0.00
2019-02-22T05:19:57.783Z,0.00
2019-02-22T05:20:57.749Z,0.00
2019-02-22T05:21:57.750Z,0.00
2019-02-22T05:23:03.762Z,0.00
2019-02-22T05:23:58.713Z,0.00
2019-02-22T05:24:57.708Z,0.00
2019-02-22T05:25:57.698Z,0.00
2019-02-22T05:26:57.734Z,0.00
2019-02-22T05:27:57.670Z,0.00
2019-02-22T05:28:57.662Z,0.00
2019-02-22T05:29:57.648Z,0.00
2019-02-22T05:30:57.643Z,0.00
2019-02-22T05:31:57.663Z,0.00
2019-02-22T05:32:57.637Z,0.00
2019-02-22T05:33:57.604Z,0.00
2019-02-22T05:34:57.594Z,0.00
2019-02-22T05:35:57.588Z,0.00
2019-02-22T05:36:57.569Z,0.00
2019-02-22T05:37:57.579Z,0.00
2019-02-22T05:38:57.549Z,0.00
2019-02-22T05:39:57.536Z,0.00
2019-02-22T05:40:57.529Z,0.00
2019-02-22T05:41:57.515Z,0.00
2019-02-22T05:42:57.515Z,0.00
2019-02-22T05:43:57.499Z,0.00
2019-02-22T05:44:57.481Z,0.00
2019-02-22T05:45:57.467Z,0.00
2019-02-22T05:47:00.443Z,0.00
2019-02-22T05:47:57.458Z,0.00
2019-02-22T05:48:57.439Z,0.00
2019-02-22T05:49:57.432Z,0.00
2019-02-22T05:50:57.412Z,0.00
2019-02-22T05:51:57.411Z,0.00
2019-02-22T05:52:57.414Z,0.00
2019-02-22T05:53:57.382Z,0.00
2019-02-22T05:54:57.375Z,0.00
2019-02-22T05:55:57.355Z,0.00
2019-02-22T05:56:57.371Z,0.00
2019-02-22T05:57:57.334Z,0.00
2019-02-22T05:58:57.335Z,0.00
2019-02-22T05:59:57.319Z,0.00
2019-02-22T06:00:57.297Z,0.00
2019-02-22T06:01:57.293Z,0.00
2019-02-22T06:02:57.281Z,4.00
2019-02-22T06:03:57.274Z,0.00
2019-02-22T06:04:57.259Z,0.00
2019-02-22T06:05:57.295Z,4.00
2019-02-22T06:06:57.259Z,4.00
2019-02-22T06:07:57.221Z,4.00
2019-02-22T06:08:57.219Z,4.00
2019-02-22T06:09:57.198Z,8.00
2019-02-22T06:10:57.186Z,8.00
2019-02-22T06:11:57.195Z,12.00
2019-02-22T06:12:57.165Z,12.00
2019-02-22T06:13:57.164Z,12.00
2019-02-22T06:14:57.141Z,12.00
2019-02-22T06:15:57.260Z,12.00
2019-02-22T06:16:57.123Z,12.00
2019-02-22T06:17:57.121Z,12.00
2019-02-22T06:18:57.113Z,12.00
2019-02-22T06:19:57.088Z,16.00
2019-02-22T06:20:57.072Z,24.00
2019-02-22T06:21:57.078Z,28.00
2019-02-22T06:22:57.055Z,36.00
2019-02-22T06:23:57.065Z,40.00
2019-02-22T06:24:57.027Z,44.00
2019-02-22T06:25:57.016Z,48.00
2019-02-22T06:26:57.003Z,52.00
2019-02-22T06:27:56.995Z,60.00
2019-02-22T06:28:56.998Z,60.00
2019-02-22T06:29:56.991Z,56.00
2019-02-22T06:30:57.086Z,64.00
2019-02-22T06:31:56.965Z,64.00
2019-02-22T06:32:56.938Z,72.00
2019-02-22T06:33:56.936Z,72.00
2019-02-22T06:34:56.926Z,80.00
2019-02-22T06:35:56.915Z,88.00
2019-02-22T06:37:01.769Z,96.00
2019-02-22T06:37:57.914Z,112.00
2019-02-22T06:38:56.873Z,120.00
2019-02-22T06:39:56.884Z,120.00
2019-02-22T06:40:56.865Z,120.00
2019-02-22T06:41:56.834Z,116.00
2019-02-22T06:42:56.829Z,116.00
2019-02-22T06:43:56.814Z,120.00
2019-02-22T06:44:56.824Z,128.00
2019-02-22T06:45:56.830Z,144.00
2019-02-22T06:46:56.794Z,156.00
2019-02-22T06:47:56.767Z,176.00
2019-02-22T06:48:56.775Z,200.00
2019-02-22T06:49:57.034Z,212.00
2019-02-22T06:50:56.737Z,236.00
2019-02-22T06:51:56.727Z,264.00
2019-02-22T06:52:56.711Z,304.00
2019-02-22T06:53:56.704Z,352.00
2019-02-22T06:54:56.688Z,384.00
2019-02-22T06:55:56.690Z,388.00
2019-02-22T06:56:56.674Z,428.00
2019-02-22T06:57:56.653Z,484.00
2019-02-22T06:58:56.643Z,520.00
2019-02-22T06:59:56.631Z,544.00
2019-02-22T07:00:56.644Z,524.00
2019-02-22T07:01:56.621Z,492.00
2019-02-22T07:02:56.616Z,520.00
2019-02-22T07:03:56.587Z,480.00
2019-02-22T07:04:56.578Z,472.00
2019-02-22T07:05:56.577Z,464.00
2019-02-22T07:06:56.559Z,480.00
2019-02-22T07:07:56.966Z,504.00
2019-02-22T07:08:56.555Z,552.00
2019-02-22T07:09:56.518Z,616.00
2019-02-22T07:10:56.535Z,776.00
2019-02-22T07:11:56.495Z,1024.00
2019-02-22T07:12:57.237Z,1196.00
2019-02-22T07:13:56.474Z,1420.00
2019-02-22T07:14:56.469Z,1524.00
2019-02-22T07:15:56.452Z,1560.00
2019-02-22T07:16:56.451Z,1532.00
2019-02-22T07:17:56.428Z,1608.00
2019-02-22T07:18:56.419Z,1672.00
2019-02-22T07:19:56.414Z,1628.00
2019-02-22T07:20:56.394Z,1668.00
2019-02-22T07:21:56.396Z,1656.00
2019-02-22T07:22:56.372Z,1604.00
2019-02-22T07:23:56.361Z,1616.00
2019-02-22T07:24:56.356Z,1624.00
2019-02-22T07:25:56.339Z,1680.00
2019-02-22T07:26:56.339Z,2264.00
2019-02-22T07:27:56.316Z,2460.00
2019-02-22T07:28:56.304Z,2552.00
2019-02-22T07:29:56.293Z,2468.00
2019-02-22T07:30:56.291Z,2480.00
2019-02-22T07:32:05.378Z,2376.00
2019-02-22T07:32:57.278Z,2164.00
2019-02-22T07:33:56.246Z,2080.00
2019-02-22T07:34:56.240Z,1972.00
2019-02-22T07:35:56.223Z,1708.00
2019-02-22T07:36:56.240Z,1624.00
2019-02-22T07:37:56.201Z,1864.00
2019-02-22T07:38:56.190Z,1932.00
2019-02-22T07:39:56.183Z,1760.00
2019-02-22T07:40:56.168Z,1708.00
2019-02-22T07:41:56.175Z,1672.00
2019-02-22T07:43:07.522Z,1676.00
2019-02-22T07:43:57.133Z,1752.00
2019-02-22T07:44:56.129Z,1816.00
2019-02-22T07:45:56.119Z,1840.00
2019-02-22T07:46:56.117Z,1884.00
2019-02-22T07:47:56.090Z,2076.00
2019-02-22T07:48:56.080Z,2308.00
2019-02-22T07:49:56.068Z,2176.00
2019-02-22T07:50:58.117Z,2360.00
2019-02-22T07:51:56.048Z,2576.00
2019-02-22T07:52:56.055Z,2636.00
2019-02-22T07:53:56.026Z,2360.00
2019-02-22T07:54:56.011Z,2444.00
2019-02-22T07:55:55.997Z,2448.00
2019-02-22T07:56:55.989Z,3036.00
2019-02-22T07:57:55.993Z,3280.00
2019-02-22T07:58:55.964Z,3372.00
2019-02-22T07:59:55.970Z,3352.00
2019-02-22T08:00:55.943Z,3436.00
2019-02-22T08:01:55.932Z,3556.00
2019-02-22T08:02:55.939Z,3712.00
2019-02-22T08:03:55.910Z,3644.00
2019-02-22T08:04:55.913Z,3504.00
2019-02-22T08:05:55.885Z,3480.00
2019-02-22T08:06:55.877Z,3280.00
2019-02-22T08:07:55.871Z,3316.00
2019-02-22T08:08:55.947Z,3124.00
2019-02-22T08:09:55.843Z,3140.00
2019-02-22T08:10:55.835Z,3288.00
2019-02-22T08:11:55.855Z,3552.00
2019-02-22T08:12:55.807Z,3516.00
2019-02-22T08:13:55.814Z,2908.00
2019-02-22T08:14:55.784Z,2448.00
2019-02-22T08:15:55.806Z,2392.00
2019-02-22T08:16:55.763Z,2448.00
2019-02-22T08:17:55.755Z,2692.00
2019-02-22T08:19:01.686Z,2996.00
2019-02-22T08:19:56.725Z,3388.00
2019-02-22T08:20:55.718Z,3720.00
2019-02-22T08:21:55.710Z,3968.00
2019-02-22T08:22:55.693Z,3996.00
2019-02-22T08:23:55.702Z,4104.00
2019-02-22T08:24:55.671Z,4408.00
2019-02-22T08:25:55.669Z,4504.00
2019-02-22T08:26:55.649Z,4464.00
2019-02-22T08:27:55.637Z,4444.00
2019-02-22T08:28:55.685Z,4448.00
2019-02-22T08:29:55.633Z,4368.00
2019-02-22T08:30:55.613Z,4356.00
2019-02-22T08:31:55.594Z,4252.00
2019-02-22T08:32:55.601Z,4152.00
2019-02-22T08:33:57.208Z,4204.00
2019-02-22T08:34:55.558Z,4312.00
2019-02-22T08:35:55.585Z,4428.00
2019-02-22T08:36:55.634Z,4540.00
2019-02-22T08:37:55.528Z,4584.00
2019-02-22T08:38:55.705Z,4440.00
2019-02-22T08:39:58.873Z,4428.00
2019-02-22T08:40:55.495Z,4472.00
2019-02-22T08:41:55.478Z,4392.00
2019-02-22T08:42:55.478Z,4376.00
2019-02-22T08:43:55.471Z,4444.00
2019-02-22T08:44:55.474Z,4536.00
2019-02-22T08:45:55.516Z,4668.00
2019-02-22T08:46:55.425Z,4884.00
2019-02-22T08:47:55.413Z,4844.00
2019-02-22T08:48:55.448Z,4944.00
2019-02-22T08:49:55.389Z,5200.00
2019-02-22T08:50:55.378Z,4972.00
2019-02-22T08:51:55.366Z,5288.00
2019-02-22T08:52:55.360Z,5044.00
2019-02-22T08:53:55.711Z,4940.00
2019-02-22T08:54:55.740Z,4928.00
2019-02-22T08:55:55.704Z,4804.00
2019-02-22T08:56:55.307Z,4796.00
2019-02-22T08:57:55.301Z,5100.00
2019-02-22T08:58:55.286Z,5264.00
2019-02-22T08:59:55.309Z,4996.00
2019-02-22T09:00:55.265Z,4616.00
2019-02-22T09:01:55.253Z,4576.00
2019-02-22T09:02:55.256Z,4812.00
2019-02-22T09:03:55.237Z,4832.00
2019-02-22T09:04:55.242Z,4704.00
2019-02-22T09:05:55.206Z,4792.00
2019-02-22T09:06:55.197Z,5260.00
2019-02-22T09:07:55.186Z,5440.00
2019-02-22T09:08:55.177Z,5232.00
2019-02-22T09:09:55.183Z,5088.00
2019-02-22T09:11:00.585Z,5040.00
2019-02-22T09:11:57.781Z,4940.00
2019-02-22T09:12:55.129Z,5128.00
2019-02-22T09:13:55.119Z,5496.00
2019-02-22T09:14:55.108Z,5852.00
2019-02-22T09:15:55.112Z,6128.00
2019-02-22T09:16:55.084Z,6244.00
2019-02-22T09:17:55.427Z,6192.00
2019-02-22T09:18:55.065Z,5924.00
2019-02-22T09:19:55.049Z,5580.00
2019-02-22T09:20:55.049Z,5280.00
2019-02-22T09:21:55.027Z,5304.00
2019-02-22T09:22:55.031Z,5264.00
2019-02-22T09:23:55.003Z,5556.00
2019-02-22T09:24:54.994Z,6052.00
2019-02-22T09:25:54.993Z,6296.00
2019-02-22T09:26:54.978Z,6124.00
2019-02-22T09:27:54.989Z,5716.00
2019-02-22T09:28:55.645Z,5512.00
2019-02-22T09:29:58.880Z,5548.00
2019-02-22T09:30:54.937Z,5688.00
2019-02-22T09:31:54.919Z,5920.00
2019-02-22T09:32:54.921Z,6180.00
2019-02-22T09:33:54.895Z,6276.00
2019-02-22T09:34:54.890Z,6024.00
2019-02-22T09:35:54.881Z,5740.00
2019-02-22T09:36:54.870Z,5500.00
2019-02-22T09:37:54.857Z,5396.00
2019-02-22T09:38:54.838Z,5436.00
2019-02-22T09:39:54.825Z,5652.00
2019-02-22T09:40:54.872Z,6008.00
2019-02-22T09:41:54.802Z,6404.00
2019-02-22T09:42:54.802Z,6700.00
2019-02-22T09:43:55.831Z,7048.00
2019-02-22T09:44:54.769Z,7420.00
2019-02-22T09:45:54.775Z,7796.00
2019-02-22T09:46:54.745Z,7980.00
2019-02-22T09:47:54.885Z,7996.00
2019-02-22T09:48:54.723Z,7900.00
2019-02-22T09:49:54.719Z,7604.00
2019-02-22T09:50:54.704Z,7288.00
2019-02-22T09:51:54.701Z,7088.00
2019-02-22T09:52:54.682Z,7004.00
2019-02-22T09:53:54.676Z,7380.00
2019-02-22T09:54:54.659Z,7648.00
2019-02-22T09:55:54.646Z,7360.00
2019-02-22T09:56:54.650Z,7020.00
2019-02-22T09:57:54.625Z,6584.00
2019-02-22T09:58:54.612Z,6240.00
2019-02-22T09:59:54.600Z,6008.00
2019-02-22T10:00:54.594Z,5984.00
2019-02-22T10:01:54.593Z,6564.00
2019-02-22T10:02:54.567Z,7388.00
2019-02-22T10:03:54.557Z,8080.00
2019-02-22T10:04:55.673Z,8848.00
2019-02-22T10:05:54.546Z,9756.00
2019-02-22T10:06:54.552Z,10936.00
2019-02-22T10:07:54.509Z,11072.00
2019-02-22T10:08:54.501Z,11408.00
2019-02-22T10:09:54.488Z,10980.00
2019-02-22T10:10:54.475Z,12180.00
2019-02-22T10:11:54.470Z,13036.00
2019-02-22T10:12:54.468Z,14268.00
2019-02-22T10:14:06.019Z,13492.00
2019-02-22T10:14:55.429Z,12320.00
2019-02-22T10:15:54.418Z,11564.00
2019-02-22T10:16:54.410Z,10400.00
2019-02-22T10:17:54.412Z,9120.00
2019-02-22T10:18:54.386Z,9032.00
2019-02-22T10:19:54.373Z,9196.00
2019-02-22T10:20:54.361Z,9440.00
2019-02-22T10:21:54.352Z,9292.00
2019-02-22T10:22:54.352Z,8960.00
2019-02-22T10:23:54.331Z,9244.00
2019-02-22T10:24:54.335Z,9264.00
2019-02-22T10:25:54.304Z,10668.00
2019-02-22T10:26:54.293Z,12184.00
2019-02-22T10:27:54.294Z,12556.00
2019-02-22T10:28:54.288Z,12504.00
2019-02-22T10:29:54.264Z,11092.00
2019-02-22T10:30:54.258Z,10800.00
2019-02-22T10:31:54.243Z,11408.00
2019-02-22T10:32:54.243Z,11700.00
2019-02-22T10:33:54.220Z,10616.00
2019-02-22T10:34:54.210Z,9964.00
2019-02-22T10:35:54.221Z,10804.00
2019-02-22T10:36:54.186Z,13888.00
2019-02-22T10:37:54.181Z,12100.00
2019-02-22T10:38:54.157Z,14976.00
2019-02-22T10:39:54.175Z,12156.00
2019-02-22T10:40:54.137Z,12608.00
2019-02-22T10:41:54.125Z,15744.00
2019-02-22T10:42:54.127Z,18144.00
2019-02-22T10:43:54.115Z,18112.00
2019-02-22T10:44:54.092Z,12252.00
2019-02-22T10:45:54.085Z,11876.00
2019-02-22T10:46:54.078Z,11888.00
2019-02-22T10:47:54.059Z,10756.00
2019-02-22T10:48:54.058Z,9192.00
2019-02-22T10:49:54.034Z,8656.00
2019-02-22T10:50:54.025Z,9484.00
2019-02-22T10:51:54.016Z,10708.00
2019-02-22T10:53:01.792Z,5356.00
2019-02-22T10:53:55.003Z,4320.00
2019-02-22T10:54:53.979Z,3740.00
2019-02-22T10:55:53.966Z,3304.00
2019-02-22T10:56:53.957Z,2900.00
2019-02-22T10:57:53.970Z,2636.00
2019-02-22T10:58:53.958Z,2672.00
2019-02-22T10:59:53.920Z,2636.00
2019-02-22T11:00:53.909Z,2416.00
2019-02-22T11:01:53.900Z,2180.00
2019-02-22T11:02:53.899Z,2020.00
2019-02-22T11:03:53.890Z,1888.00
2019-02-22T11:04:53.867Z,1700.00
2019-02-22T11:05:53.898Z,1512.00
2019-02-22T11:06:53.842Z,1332.00
2019-02-22T11:07:53.831Z,1140.00
2019-02-22T11:08:53.840Z,1068.00
2019-02-22T11:09:53.827Z,1044.00
2019-02-22T11:10:53.835Z,1036.00
2019-02-22T11:11:53.787Z,1132.00
2019-02-22T11:12:53.780Z,1384.00
2019-02-22T11:13:53.771Z,1784.00
2019-02-22T11:14:53.762Z,2400.00
2019-02-22T11:15:53.750Z,3440.00
2019-02-22T11:16:53.727Z,4244.00
2019-02-22T11:17:53.721Z,4852.00
2019-02-22T11:18:53.714Z,5040.00
2019-02-22T11:19:53.708Z,4816.00
2019-02-22T11:20:53.682Z,4368.00
2019-02-22T11:21:53.670Z,4168.00
2019-02-22T11:22:53.658Z,4088.00
2019-02-22T11:23:53.666Z,3928.00
2019-02-22T11:24:53.650Z,3896.00
2019-02-22T11:25:53.638Z,3912.00
2019-02-22T11:26:53.618Z,4056.00
2019-02-22T11:27:53.600Z,4308.00
2019-02-22T11:28:53.592Z,4820.00
2019-02-22T11:29:53.595Z,5484.00
2019-02-22T11:30:53.567Z,6364.00
2019-02-22T11:31:53.586Z,6736.00
2019-02-22T11:32:53.544Z,6884.00
2019-02-22T11:33:53.532Z,6980.00
2019-02-22T11:34:53.526Z,6776.00
2019-02-22T11:35:53.508Z,6644.00
2019-02-22T11:36:53.500Z,7096.00
2019-02-22T11:37:53.552Z,7236.00
2019-02-22T11:38:53.477Z,7836.00
2019-02-22T11:39:53.467Z,8500.00
2019-02-22T11:40:53.454Z,8716.00
2019-02-22T11:41:53.441Z,8444.00
2019-02-22T11:42:53.447Z,8528.00
2019-02-22T11:43:53.423Z,7792.00
2019-02-22T11:44:53.439Z,15284.00
2019-02-22T11:45:53.395Z,15124.00
2019-02-22T11:46:53.389Z,3744.00
2019-02-22T11:47:53.466Z,2992.00
2019-02-22T11:48:53.357Z,2824.00
2019-02-22T11:49:53.349Z,2684.00
2019-02-22T11:50:53.352Z,2664.00
2019-02-22T11:51:55.836Z,2736.00
2019-02-22T11:52:53.314Z,2852.00
2019-02-22T11:53:53.307Z,2948.00
2019-02-22T11:54:53.288Z,3000.00
2019-02-22T11:55:53.296Z,2972.00
2019-02-22T11:56:53.271Z,3032.00
2019-02-22T11:57:53.253Z,3108.00
2019-02-22T11:58:53.244Z,3240.00
2019-02-22T11:59:53.231Z,3544.00
2019-02-22T12:00:53.237Z,3960.00
2019-02-22T12:01:53.206Z,4380.00
2019-02-22T12:02:53.214Z,4644.00
2019-02-22T12:03:53.190Z,4808.00
2019-02-22T12:04:53.187Z,5028.00
2019-02-22T12:05:53.175Z,5288.00
2019-02-22T12:06:53.149Z,5388.00
2019-02-22T12:07:53.145Z,5712.00
2019-02-22T12:08:53.200Z,5968.00
2019-02-22T12:09:53.128Z,6036.00
2019-02-22T12:10:53.121Z,5864.00
2019-02-22T12:11:53.091Z,5656.00
2019-02-22T12:12:53.078Z,5648.00
2019-02-22T12:13:53.071Z,5788.00
2019-02-22T12:14:53.067Z,6048.00
2019-02-22T12:15:53.066Z,6272.00
2019-02-22T12:16:53.033Z,6708.00
2019-02-22T12:17:53.023Z,7164.00
2019-02-22T12:18:53.009Z,7772.00
2019-02-22T12:19:52.999Z,8664.00
2019-02-22T12:20:53.011Z,9404.00
2019-02-22T12:21:52.978Z,9756.00
2019-02-22T12:22:52.971Z,9804.00
2019-02-22T12:23:53.121Z,10196.00
2019-02-22T12:24:52.941Z,10612.00
2019-02-22T12:25:52.933Z,10924.00
2019-02-22T12:26:52.935Z,10760.00
2019-02-22T12:27:52.911Z,11324.00
2019-02-22T12:28:52.897Z,10988.00
2019-02-22T12:29:52.900Z,10628.00
2019-02-22T12:30:52.874Z,10436.00
2019-02-22T12:31:52.889Z,10392.00
2019-02-22T12:32:52.849Z,10060.00
2019-02-22T12:33:52.843Z,8704.00
2019-02-22T12:34:52.829Z,8284.00
2019-02-22T12:35:52.818Z,8352.00
2019-02-22T12:36:52.818Z,8096.00
2019-02-22T12:37:52.802Z,8372.00
2019-02-22T12:38:52.785Z,8740.00
2019-02-22T12:39:52.770Z,8972.00
2019-02-22T12:40:52.769Z,8672.00
2019-02-22T12:41:53.684Z,7956.00
2019-02-22T12:42:52.740Z,7248.00